Time;durP1;ratioP1;P1;durP2;ratioP2;P2;SDS_P1;SDS_P2;PMS_P1;PMS_P2;Temp;Humidity;BMP_temperature;BMP_pressure;BME280_temperature;BME280_humidity;BME280_pressure;Samples;Min_cycle;Max_cycle;Signal;HPM_P1;HPM_P2
2021/07/12 00:27:19;;;;;;;7.28;2.80;;;;;;;17.36;74.32;99646.00;2220151;40;19940;-83
2021/07/12 00:28:51;;;;;;;4.63;2.70;;;;;;;17.37;74.30;99649.53;2203500;40;20033;-82
2021/07/12 00:30:23;;;;;;;6.25;2.75;;;;;;;17.35;74.49;99640.81;2203299;40;20030;-84
2021/07/12 00:31:55;;;;;;;6.80;2.92;;;;;;;17.28;74.92;99643.47;2197521;40;20035;-85
2021/07/12 00:33:26;;;;;;;5.75;2.55;;;;;;;17.17;75.44;99644.84;2197372;40;20038;-84
2021/07/12 00:34:57;;;;;;;4.25;2.72;;;;;;;17.07;75.87;99641.66;2197165;40;20039;-85
2021/07/12 00:36:29;;;;;;;6.68;3.28;;;;;;;16.97;76.49;99650.94;2197268;40;20023;-84
2021/07/12 00:38:01;;;;;;;5.50;2.90;;;;;;;16.91;76.78;99645.47;2197734;40;20034;-84
2021/07/12 00:39:33;;;;;;;5.55;3.00;;;;;;;16.86;76.94;99637.13;2197416;40;20376;-84
2021/07/12 00:41:05;;;;;;;4.93;2.63;;;;;;;16.90;77.13;99633.00;2196778;40;20051;-86
2021/07/12 00:42:38;;;;;;;5.70;3.03;;;;;;;16.96;76.90;99638.47;2196697;40;20031;-83
2021/07/12 00:44:10;;;;;;;4.30;2.67;;;;;;;17.00;76.73;99628.13;2197373;40;20024;-83
2021/07/12 00:45:43;;;;;;;7.82;2.60;;;;;;;17.02;76.57;99633.31;2196444;40;20050;-83
2021/07/12 00:47:13;;;;;;;5.78;3.00;;;;;;;17.03;76.45;99629.56;2197174;40;20027;-83
2021/07/12 00:48:45;;;;;;;7.18;2.88;;;;;;;17.01;76.55;99618.97;2197241;40;20046;-85
2021/07/12 00:50:18;;;;;;;6.80;3.47;;;;;;;16.95;76.58;99627.88;2197039;40;20031;-84
2021/07/12 00:51:50;;;;;;;5.18;2.80;;;;;;;16.91;76.69;99615.75;2197277;40;20027;-85
2021/07/12 00:53:21;;;;;;;5.75;2.35;;;;;;;16.91;76.97;99616.59;2197035;40;20473;-85
2021/07/12 00:54:53;;;;;;;6.70;3.10;;;;;;;16.99;76.77;99615.66;2196864;40;20030;-84
2021/07/12 00:56:25;;;;;;;6.57;3.30;;;;;;;17.03;76.77;99611.53;2197082;40;20043;-83
2021/07/12 00:57:58;;;;;;;6.43;2.75;;;;;;;17.06;76.70;99610.28;2196856;40;20486;-84
2021/07/12 00:59:30;;;;;;;5.75;2.97;;;;;;;17.10;76.35;99604.28;2197334;40;20031;-85
2021/07/12 01:01:04;;;;;;;5.45;3.05;;;;;;;17.07;76.64;99611.97;2197300;40;20059;-83
2021/07/12 01:02:35;;;;;;;5.68;3.15;;;;;;;17.10;76.60;99606.16;2197781;40;20046;-86
2021/07/12 01:04:07;;;;;;;6.22;3.35;;;;;;;17.03;76.66;99598.03;2197357;40;20050;-83
2021/07/12 01:05:40;;;;;;;5.63;3.50;;;;;;;16.97;76.77;99601.50;2197145;40;20589;-85
2021/07/12 01:07:13;;;;;;;4.72;2.60;;;;;;;16.98;76.60;99595.91;2196862;40;20023;-87
2021/07/12 01:08:45;;;;;;;5.78;2.78;;;;;;;17.02;76.40;99598.22;2197334;40;20039;-85
2021/07/12 01:10:17;;;;;;;6.25;2.75;;;;;;;17.03;76.44;99594.47;2197386;40;20031;-83
2021/07/12 01:11:57;;;;;;;5.72;2.75;;;;;;;17.08;76.22;99597.44;2197302;40;20055;-84
2021/07/12 01:13:35;;;;;;;5.32;3.00;;;;;;;17.10;75.90;99600.75;2197291;40;20036;-84
2021/07/12 01:15:12;;;;;;;5.43;2.85;;;;;;;17.09;75.89;99593.69;2197243;40;20167;-83
2021/07/12 01:17:03;;;;;;;5.97;3.03;;;;;;;17.08;75.86;99600.13;2197181;40;20043;-84
2021/07/12 01:18:40;;;;;;;4.65;2.50;;;;;;;17.08;75.99;99603.66;2197163;40;20103;-85
2021/07/12 01:20:39;;;;;;;5.82;2.60;;;;;;;17.08;75.60;99602.84;2197133;40;20047;-86
2021/07/12 01:22:46;;;;;;;6.30;3.20;;;;;;;17.05;76.04;99592.41;2197237;40;20035;-85
2021/07/12 01:24:59;;;;;;;10.43;3.58;;;;;;;16.99;75.87;99594.91;2193002;40;20678;-85
2021/07/12 01:26:56;;;;;;;8.38;3.30;;;;;;;16.97;75.63;99594.25;2197171;40;20035;-84
2021/07/12 01:28:57;;;;;;;6.22;2.92;;;;;;;16.95;75.56;99590.91;2206682;40;20049;-86
2021/07/12 01:30:51;;;;;;;7.07;3.10;;;;;;;16.94;75.56;99594.63;2208977;40;20039;-85
2021/07/12 01:32:43;;;;;;;6.95;2.95;;;;;;;16.98;75.41;99587.81;2209171;40;20037;-86
2021/07/12 01:34:17;;;;;;;5.35;2.45;;;;;;;16.98;75.60;99587.81;2209174;40;20041;-85
2021/07/12 01:35:59;;;;;;;9.65;2.90;;;;;;;16.98;75.44;99589.66;2209201;40;20023;-85
2021/07/12 01:37:37;;;;;;;6.22;2.70;;;;;;;16.96;75.36;99587.19;2209352;40;20023;-83
2021/07/12 01:39:13;;;;;;;7.30;3.20;;;;;;;16.90;75.53;99579.00;2208937;40;20046;-84
2021/07/12 01:40:58;;;;;;;4.78;2.92;;;;;;;16.85;75.97;99582.28;2209142;40;20045;-85
2021/07/12 01:42:38;;;;;;;6.00;2.72;;;;;;;16.85;75.81;99576.88;2209298;40;20035;-85
2021/07/12 01:44:21;;;;;;;5.38;2.55;;;;;;;16.87;75.73;99573.97;2209325;40;20488;-87
2021/07/12 01:46:00;;;;;;;6.57;2.53;;;;;;;16.85;75.42;99571.50;2209314;40;20068;-87
2021/07/12 01:47:40;;;;;;;7.72;2.83;;;;;;;16.83;75.68;99568.16;2209330;40;20691;-83
2021/07/12 01:49:22;;;;;;;6.65;2.80;;;;;;;16.80;75.54;99573.97;2209266;40;20029;-84
2021/07/12 01:50:57;;;;;;;4.82;2.83;;;;;;;16.76;76.04;99567.28;2209678;40;20031;-82
2021/07/12 01:52:38;;;;;;;4.95;2.78;;;;;;;16.75;75.92;99576.41;2209295;40;20026;-85
2021/07/12 01:54:13;;;;;;;6.70;3.00;;;;;;;16.74;76.23;99575.59;2209212;40;20053;-83
2021/07/12 01:55:55;;;;;;;7.93;3.20;;;;;;;16.74;76.16;99585.53;2209034;40;20038;-83
2021/07/12 01:57:32;;;;;;;5.20;2.90;;;;;;;16.71;76.18;99575.16;2209830;40;20038;-83
2021/07/12 01:59:10;;;;;;;5.07;3.15;;;;;;;16.61;76.55;99572.78;2210119;40;20058;-83
2021/07/12 02:00:46;;;;;;;4.78;2.53;;;;;;;16.52;76.97;99562.13;2210126;40;20071;-83
2021/07/12 02:02:18;;;;;;;5.97;3.17;;;;;;;16.43;77.05;99565.19;2210153;40;20034;-83
2021/07/12 02:03:51;;;;;;;5.80;2.78;;;;;;;16.36;77.40;99557.03;2210296;40;20030;-84
2021/07/12 02:05:26;;;;;;;4.28;2.63;;;;;;;16.29;77.40;99559.66;2210211;40;20030;-83
2021/07/12 02:07:00;;;;;;;5.28;2.45;;;;;;;16.31;77.11;99559.44;2210200;40;20040;-83
2021/07/12 02:08:33;;;;;;;6.03;2.72;;;;;;;16.31;77.04;99560.31;2210160;40;20260;-83
2021/07/12 02:10:06;;;;;;;7.80;2.75;;;;;;;16.30;76.84;99555.09;2210206;40;20030;-81
2021/07/12 02:11:41;;;;;;;4.10;2.50;;;;;;;16.23;77.03;99573.94;2210197;40;20046;-83
2021/07/12 02:13:14;;;;;;;7.60;3.17;;;;;;;16.10;77.30;99563.00;2210343;40;20023;-81
2021/07/12 02:14:47;;;;;;;7.18;2.95;;;;;;;16.02;77.67;99570.19;2210529;40;20038;-82
2021/07/12 02:16:21;;;;;;;5.85;2.80;;;;;;;15.92;77.64;99568.84;2210198;40;20078;-84
2021/07/12 02:17:54;;;;;;;6.05;2.75;;;;;;;15.89;78.10;99578.13;2209874;40;20105;-83
2021/07/12 02:19:28;;;;;;;6.50;3.20;;;;;;;15.88;77.75;99569.22;2210124;40;20037;-82
2021/07/12 02:21:00;;;;;;;10.45;2.75;;;;;;;15.85;78.20;99568.78;2210117;40;20108;-85
2021/07/12 02:22:35;;;;;;;5.63;2.78;;;;;;;15.83;78.10;99562.69;2210307;40;20063;-83
2021/07/12 02:24:08;;;;;;;4.70;2.85;;;;;;;15.82;78.06;99561.84;2210186;40;20037;-84
2021/07/12 02:25:42;;;;;;;8.63;3.20;;;;;;;15.82;78.08;99567.25;2210229;40;20487;-85
2021/07/12 02:27:14;;;;;;;6.15;2.40;;;;;;;15.80;77.99;99573.84;2210375;40;20038;-85
2021/07/12 02:28:48;;;;;;;5.60;2.80;;;;;;;15.78;78.03;99575.91;2210120;40;20046;-84
2021/07/12 02:30:21;;;;;;;5.97;2.88;;;;;;;15.72;78.26;99569.44;2210422;40;20049;-84
2021/07/12 02:31:55;;;;;;;7.70;2.70;;;;;;;15.67;78.28;99580.78;2210301;40;20038;-83
2021/07/12 02:33:28;;;;;;;8.27;2.80;;;;;;;15.62;78.56;99572.41;2210296;40;20042;-84
2021/07/12 02:35:02;;;;;;;6.47;3.03;;;;;;;15.59;78.64;99568.25;2210277;40;20042;-84
2021/07/12 02:36:45;;;;;;;9.68;3.13;;;;;;;15.56;78.77;99575.88;2210380;40;20030;-84
2021/07/12 02:51:16;;;;;;;5.88;3.33;;;;;;;15.34;79.77;99583.88;2210774;40;20045;-83
2021/07/12 02:53:11;;;;;;;5.13;3.25;;;;;;;15.33;79.69;99574.13;2211220;40;20038;-84
2021/07/12 02:55:14;;;;;;;6.00;3.10;;;;;;;15.34;79.80;99580.38;2211299;40;20026;-83
2021/07/12 03:10:59;;;;;;;5.40;2.95;;;;;;;15.27;79.86;99574.91;2225656;40;20335;-80
2021/07/12 03:12:38;;;;;;;8.57;3.70;;;;;;;15.23;79.83;99578.97;2228031;40;20040;-80
2021/07/12 03:14:15;;;;;;;4.70;2.80;;;;;;;15.22;79.95;99582.69;2216859;40;20045;-81
2021/07/12 03:15:50;;;;;;;6.30;3.33;;;;;;;15.20;79.95;99580.19;2219049;40;20281;-81
2021/07/12 03:17:23;;;;;;;5.78;3.38;;;;;;;15.20;80.31;99579.38;2218837;40;20316;-80
2021/07/12 03:19:02;;;;;;;8.13;3.35;;;;;;;15.21;80.32;99572.97;2219875;40;20037;-80
2021/07/12 03:20:37;;;;;;;7.15;3.42;;;;;;;15.21;80.34;99572.97;2207349;40;20034;-79
2021/07/12 03:22:11;;;;;;;5.15;2.70;;;;;;;15.25;79.94;99579.63;2215056;40;20042;-79
2021/07/12 03:25:46;;;;;;;5.53;3.40;;;;;;;15.37;79.91;99561.13;2207465;40;20061;-81
2021/07/12 03:27:37;;;;;;;5.05;2.90;;;;;;;15.34;79.92;99565.03;2210188;40;20018;-81
2021/07/12 03:29:12;;;;;;;4.72;2.42;;;;;;;15.41;79.65;99571.34;2190465;40;20036;-80
2021/07/12 03:30:48;;;;;;;8.23;4.63;;;;;;;15.49;79.40;99556.13;2207538;40;20034;-81
2021/07/12 03:32:24;;;;;;;10.25;5.95;;;;;;;15.51;79.39;99559.44;2201874;40;20035;-80
2021/07/12 03:34:03;;;;;;;7.97;4.88;;;;;;;15.52;79.17;99553.03;2212756;40;20024;-82
2021/07/12 03:38:24;;;;;;;7.15;5.20;;;;;;;15.54;78.92;99545.59;2222546;40;20058;-81
2021/07/12 03:39:57;;;;;;;7.57;5.53;;;;;;;15.54;79.10;99534.81;2209160;40;20041;-81
2021/07/12 03:41:55;;;;;;;8.43;5.70;;;;;;;15.59;78.79;99537.75;2196913;40;20047;-80
2021/07/12 03:43:43;;;;;;;7.53;3.65;;;;;;;15.65;78.86;99534.34;2190879;40;20028;-82
2021/07/12 03:45:23;;;;;;;9.52;4.28;;;;;;;15.67;78.73;99532.28;2195838;40;20031;-82
2021/07/12 03:47:39;;;;;;;6.07;4.30;;;;;;;15.72;78.38;99535.22;2198424;40;20015;-81
2021/07/12 03:59:24;;;;;;;4.82;2.70;;;;;;;15.81;77.99;99543.19;2144265;41;20047;-82
2021/07/12 07:05:19;;;;;;;5.57;2.70;;;;;;;20.44;64.62;99443.38;2213590;40;20012;-85
2021/07/12 07:06:50;;;;;;;6.75;2.90;;;;;;;20.53;64.33;99439.31;2216423;40;20080;-87
2021/07/12 07:08:22;;;;;;;9.73;2.55;;;;;;;20.56;63.81;99443.47;2213765;40;20038;-86
2021/07/12 07:09:52;;;;;;;6.53;2.63;;;;;;;20.65;63.68;99436.66;2210321;40;20494;-87
2021/07/12 07:11:24;;;;;;;7.50;2.35;;;;;;;20.75;63.09;99429.91;2209226;40;20054;-87
2021/07/12 07:12:56;;;;;;;5.22;2.50;;;;;;;20.83;63.10;99424.16;2208063;40;20100;-87
2021/07/12 07:14:27;;;;;;;5.35;2.60;;;;;;;20.93;62.79;99427.19;2208209;40;20030;-86
2021/07/12 07:16:00;;;;;;;10.20;3.00;;;;;;;21.03;62.39;99426.63;2208328;40;20049;-87
2021/07/12 07:17:31;;;;;;;6.40;3.20;;;;;;;21.08;62.17;99428.66;2208253;40;20050;-86
2021/07/12 07:19:03;;;;;;;5.88;2.83;;;;;;;21.15;62.12;99424.81;2207631;40;20043;-86
2021/07/12 07:20:37;;;;;;;5.45;2.63;;;;;;;21.18;62.03;99424.34;2208045;40;20035;-87
2021/07/12 07:22:08;;;;;;;7.80;3.00;;;;;;;21.27;61.91;99424.84;2207767;40;20037;-85
2021/07/12 07:23:40;;;;;;;5.55;2.33;;;;;;;21.26;61.76;99412.31;2207736;40;20042;-86
2021/07/12 07:25:13;;;;;;;7.13;2.58;;;;;;;21.33;61.57;99414.94;2213877;40;20042;-86
2021/07/12 07:26:45;;;;;;;4.32;2.10;;;;;;;21.34;61.79;99403.84;2213717;40;20042;-86
2021/07/12 07:28:17;;;;;;;7.43;2.53;;;;;;;21.45;61.42;99406.81;2213804;40;20284;-85
2021/07/12 07:29:49;;;;;;;15.38;3.88;;;;;;;21.50;61.33;99409.69;2213913;40;20034;-86
2021/07/12 07:31:21;;;;;;;8.45;2.72;;;;;;;21.53;61.21;99406.50;2213881;40;20045;-86
2021/07/12 07:32:52;;;;;;;5.88;2.10;;;;;;;21.50;61.33;99398.81;2215188;40;20045;-86
2021/07/12 07:34:24;;;;;;;5.72;2.60;;;;;;;21.54;61.20;99389.09;2215416;40;20030;-86
2021/07/12 07:35:56;;;;;;;6.65;2.20;;;;;;;21.63;60.71;99381.47;2216445;40;20034;-88
2021/07/12 07:37:28;;;;;;;8.85;4.88;;;;;;;21.71;60.77;99377.59;2203355;40;20039;-89
2021/07/12 07:39:00;;;;;;;7.10;4.28;;;;;;;21.78;60.84;99373.69;2202988;40;20046;-84
2021/07/12 07:40:32;;;;;;;7.25;3.15;;;;;;;21.92;60.54;99363.41;2202716;40;20050;-84
2021/07/12 07:42:04;;;;;;;15.40;2.47;;;;;;;21.93;60.40;99356.91;2205298;40;20027;-85
2021/07/12 07:43:36;;;;;;;4.60;1.88;;;;;;;21.99;60.47;99343.44;2208495;40;20039;-87
2021/07/12 07:45:09;;;;;;;7.75;2.00;;;;;;;22.05;60.44;99345.19;2208591;40;20035;-86
2021/07/12 07:46:41;;;;;;;5.50;1.80;;;;;;;22.24;60.25;99341.28;2209197;40;20090;-86
2021/07/12 07:48:13;;;;;;;4.35;2.00;;;;;;;22.50;59.58;99341.84;2209490;40;20041;-86
2021/07/12 07:49:43;;;;;;;8.88;2.42;;;;;;;22.69;58.96;99330.78;2209235;40;20045;-84
2021/07/12 07:51:17;;;;;;;4.68;2.10;;;;;;;22.67;59.04;99319.31;2207811;40;20038;-85
2021/07/12 07:52:48;;;;;;;3.83;1.77;;;;;;;22.81;58.83;99320.66;2206736;40;20038;-85
2021/07/12 07:54:20;;;;;;;4.13;2.00;;;;;;;22.98;58.29;99314.44;2206647;40;20043;-84
2021/07/12 07:55:52;;;;;;;5.95;2.00;;;;;;;22.99;57.26;99313.34;2207306;40;20042;-85
2021/07/12 07:57:23;;;;;;;4.93;2.25;;;;;;;23.00;57.15;99315.00;2206453;40;20038;-84
2021/07/12 07:58:55;;;;;;;5.20;2.25;;;;;;;23.14;56.84;99307.34;2206380;40;20042;-84
2021/07/12 08:00:28;;;;;;;5.03;1.85;;;;;;;23.38;55.40;99318.97;2201558;40;20403;-85
2021/07/12 08:01:58;;;;;;;3.70;1.60;;;;;;;23.50;54.92;99305.25;2200435;40;20059;-85
2021/07/12 08:03:30;;;;;;;4.78;1.55;;;;;;;23.67;54.51;99306.06;2199951;40;20046;-85
2021/07/12 08:05:02;;;;;;;3.70;1.40;;;;;;;23.83;54.31;99304.41;2199630;40;20034;-85
2021/07/12 08:06:35;;;;;;;5.75;1.58;;;;;;;23.80;54.34;99310.38;2200724;40;20057;-85
2021/07/12 08:08:07;;;;;;;4.97;1.63;;;;;;;23.94;54.30;99293.63;2201306;40;20042;-85
2021/07/12 08:09:38;;;;;;;4.60;1.50;;;;;;;24.08;53.81;99294.13;2200634;40;20338;-84
2021/07/12 08:11:10;;;;;;;4.38;1.42;;;;;;;24.17;53.16;99291.78;2201377;40;20050;-84
2021/07/12 08:12:42;;;;;;;4.47;1.48;;;;;;;24.16;53.07;99292.88;2193555;40;20043;-84
2021/07/12 08:14:14;;;;;;;3.47;1.52;;;;;;;24.06;53.35;99286.19;2198826;40;20098;-84
2021/07/12 08:15:46;;;;;;;5.68;1.60;;;;;;;23.99;53.55;99291.03;2201202;40;20035;-84
2021/07/12 08:17:17;;;;;;;4.20;1.50;;;;;;;23.93;53.69;99281.06;2201089;40;20043;-85
2021/07/12 08:18:48;;;;;;;3.55;1.40;;;;;;;23.92;53.80;99284.88;2200410;40;20046;-86
2021/07/12 08:20:21;;;;;;;3.40;1.55;;;;;;;23.99;53.74;99289.09;2201036;40;20039;-86
2021/07/12 08:21:53;;;;;;;7.05;1.30;;;;;;;24.02;53.73;99279.59;2200947;40;20557;-85
2021/07/12 08:23:26;;;;;;;3.63;1.50;;;;;;;24.16;53.20;99284.69;2200445;40;20050;-85
2021/07/12 08:24:57;;;;;;;2.78;1.23;;;;;;;24.25;53.23;99277.69;2201232;40;20079;-85
2021/07/12 08:26:29;;;;;;;3.75;1.30;;;;;;;24.49;52.95;99277.41;2201201;40;20038;-84
2021/07/12 08:28:00;;;;;;;3.60;1.50;;;;;;;24.77;52.12;99263.56;2201189;40;20043;-85
2021/07/12 08:29:32;;;;;;;3.47;1.58;;;;;;;25.01;51.11;99259.69;2200459;40;20047;-84
2021/07/12 08:31:03;;;;;;;5.38;1.60;;;;;;;25.21;50.51;99273.53;2201191;40;20101;-84
2021/07/12 08:32:35;;;;;;;3.53;1.48;;;;;;;25.36;49.74;99256.41;2201036;40;20074;-84
2021/07/12 08:34:07;;;;;;;4.30;1.40;;;;;;;25.49;49.04;99257.09;2200930;40;20295;-84
2021/07/12 08:35:39;;;;;;;2.85;1.25;;;;;;;25.69;48.77;99249.00;2205766;40;20031;-84
2021/07/12 08:37:13;;;;;;;3.58;1.60;;;;;;;25.86;47.52;99253.50;2207444;40;20031;-84
2021/07/12 08:38:46;;;;;;;3.22;1.30;;;;;;;25.91;47.20;99253.50;2201452;40;20042;-85
2021/07/12 08:40:20;;;;;;;4.70;1.23;;;;;;;25.72;47.01;99250.41;2200563;40;20039;-84
2021/07/12 08:41:52;;;;;;;3.53;1.40;;;;;;;25.82;47.02;99249.63;2200967;40;20089;-84
2021/07/12 08:43:25;;;;;;;3.10;1.20;;;;;;;25.87;46.83;99248.84;2201470;40;20042;-83
2021/07/12 08:44:56;;;;;;;2.50;1.00;;;;;;;26.11;46.57;99244.63;2201336;40;20039;-84
2021/07/12 08:46:28;;;;;;;3.53;1.20;;;;;;;26.29;45.09;99240.56;2199879;40;20045;-84
2021/07/12 08:48:01;;;;;;;3.65;1.30;;;;;;;26.31;45.04;99245.75;2200754;40;20047;-88
2021/07/12 08:49:33;;;;;;;4.18;1.20;;;;;;;26.39;44.98;99233.47;2201642;40;20035;-84
2021/07/12 08:51:05;;;;;;;3.17;1.40;;;;;;;26.57;44.48;99229.41;2202542;40;20035;-84
2021/07/12 08:52:42;;;;;;;3.45;1.70;;;;;;;26.60;44.26;99224.22;2201360;40;20034;-84
2021/07/12 08:54:14;;;;;;;3.00;1.35;;;;;;;26.87;43.69;99228.66;2201068;40;20062;-82
2021/07/12 08:55:46;;;;;;;2.70;1.30;;;;;;;26.99;43.14;99222.09;2201386;40;20035;-83
2021/07/12 08:57:17;;;;;;;1.95;0.90;;;;;;;27.03;43.20;99223.16;2201147;40;20035;-83
2021/07/12 08:58:49;;;;;;;3.20;1.40;;;;;;;27.04;42.99;99220.19;2200745;40;20047;-84
2021/07/12 09:00:35;;;;;;;3.97;2.13;;;;;;;26.96;42.86;99222.63;2200662;40;20043;-83
2021/07/12 09:02:09;;;;;;;3.15;1.40;;;;;;;26.85;43.10;99214.41;2196035;40;20058;-83
2021/07/12 09:03:43;;;;;;;4.82;1.63;;;;;;;26.81;42.76;99221.53;2200946;40;20034;-83
2021/07/12 09:05:13;;;;;;;3.03;1.20;;;;;;;26.93;42.50;99216.59;2201629;40;20058;-84
2021/07/12 09:06:59;;;;;;;7.60;1.30;;;;;;;27.08;42.25;99224.00;2202028;40;20054;-82
2021/07/12 09:08:38;;;;;;;4.07;1.23;;;;;;;27.28;41.93;99225.09;2204513;40;20046;-84
2021/07/12 09:10:11;;;;;;;2.67;1.20;;;;;;;27.41;41.47;99220.94;2204534;40;20480;-84
2021/07/12 09:11:43;;;;;;;6.07;3.30;;;;;;;27.36;41.24;99216.28;2203394;40;20039;-84
2021/07/12 09:13:15;;;;;;;2.95;1.50;;;;;;;27.10;41.50;99218.25;2203550;40;20031;-84
2021/07/12 09:15:04;;;;;;;3.35;1.30;;;;;;;27.12;41.81;99218.78;2210220;40;20225;-84
2021/07/12 09:16:55;;;;;;;3.58;1.40;;;;;;;27.29;41.30;99203.97;2210612;40;20022;-84
2021/07/12 09:18:34;;;;;;;3.50;1.13;;;;;;;27.24;41.17;99210.28;2203894;40;20023;-83
2021/07/12 09:20:08;;;;;;;2.72;1.20;;;;;;;27.19;41.38;99205.63;2204754;40;20039;-83
2021/07/12 09:21:41;;;;;;;3.15;1.20;;;;;;;27.32;41.22;99208.91;2207464;40;20050;-83
2021/07/12 09:23:22;;;;;;;3.15;1.30;;;;;;;27.33;41.34;99211.38;2210384;40;20026;-84
2021/07/12 09:24:56;;;;;;;2.50;1.10;;;;;;;27.53;41.23;99209.72;2203976;40;20030;-84
2021/07/12 09:26:26;;;;;;;2.85;1.10;;;;;;;27.74;40.82;99210.50;2202220;40;20042;-84
2021/07/12 09:27:58;;;;;;;3.50;1.65;;;;;;;27.77;40.25;99215.44;2201653;40;20063;-84
2021/07/12 09:29:32;;;;;;;3.13;1.20;;;;;;;27.68;40.25;99211.59;2201484;40;20031;-84
2021/07/12 09:31:25;;;;;;;3.38;1.40;;;;;;;27.39;40.61;99207.53;2201682;40;20042;-84
2021/07/12 09:32:56;;;;;;;3.10;1.27;;;;;;;27.28;41.09;99200.41;2201283;40;20035;-84
2021/07/12 09:34:29;;;;;;;3.15;1.30;;;;;;;27.25;41.32;99193.56;2200753;40;20027;-83
2021/07/12 09:36:16;;;;;;;2.58;1.00;;;;;;;27.37;41.05;99201.47;2201227;40;20035;-83
2021/07/12 09:38:00;;;;;;;3.78;1.25;;;;;;;27.54;40.68;99198.47;2201547;40;20035;-84
2021/07/12 09:39:43;;;;;;;3.17;1.55;;;;;;;27.56;40.51;99195.44;2201388;40;20035;-85
2021/07/12 09:41:29;;;;;;;3.28;1.27;;;;;;;27.64;40.52;99199.53;2201757;40;20101;-84
2021/07/12 09:43:01;;;;;;;3.15;1.10;;;;;;;27.74;40.35;99191.28;2202339;40;20041;-84
2021/07/12 09:44:33;;;;;;;3.22;1.27;;;;;;;27.83;40.19;99200.59;2202129;40;20072;-84
2021/07/12 09:46:28;;;;;;;3.45;1.17;;;;;;;27.93;39.21;99207.94;2201349;40;20051;-84
2021/07/12 09:48:07;;;;;;;4.03;1.10;;;;;;;28.01;39.40;99207.34;2201882;40;20039;-84
2021/07/12 09:49:39;;;;;;;2.65;0.90;;;;;;;28.16;39.08;99203.75;2210048;40;20041;-84
2021/07/12 09:51:10;;;;;;;2.85;0.90;;;;;;;28.36;39.13;99199.25;2213861;40;20038;-84
2021/07/12 09:52:43;;;;;;;2.50;1.10;;;;;;;28.36;38.69;99203.94;2212658;40;20057;-84
2021/07/12 09:54:18;;;;;;;3.33;1.10;;;;;;;28.47;38.41;99198.09;2213340;40;20397;-83
2021/07/12 09:55:51;;;;;;;2.63;1.05;;;;;;;28.52;37.40;99204.69;2212153;40;20044;-84
2021/07/12 09:57:28;;;;;;;6.00;1.98;;;;;;;28.18;38.09;99187.81;2213277;40;20045;-83
2021/07/12 09:58:59;;;;;;;5.10;1.50;;;;;;;28.05;38.58;99193.91;2213451;40;20041;-83
2021/07/12 10:00:31;;;;;;;3.45;1.40;;;;;;;28.00;38.63;99186.53;2212922;40;20048;-84
2021/07/12 10:02:04;;;;;;;2.47;1.10;;;;;;;27.92;39.12;99205.50;2213397;40;20061;-84
2021/07/12 10:03:37;;;;;;;4.35;1.70;;;;;;;27.95;39.18;99199.44;2213413;40;20034;-84
2021/07/12 10:05:11;;;;;;;3.08;1.38;;;;;;;27.99;38.98;99201.34;2214095;40;20038;-83
2021/07/12 10:06:44;;;;;;;2.80;1.00;;;;;;;28.23;38.58;99197.16;2201741;40;20057;-84
2021/07/12 10:08:17;;;;;;;2.70;1.10;;;;;;;28.28;38.48;99197.09;2201133;40;20039;-84
2021/07/12 10:09:48;;;;;;;5.95;1.30;;;;;;;28.40;38.43;99203.09;2201263;40;20035;-84
2021/07/12 10:11:20;;;;;;;2.42;1.08;;;;;;;28.52;38.45;99185.44;2201917;40;20628;-85
2021/07/12 10:12:53;;;;;;;2.17;0.93;;;;;;;28.81;37.90;99195.72;2201633;40;20035;-83
2021/07/12 10:14:25;;;;;;;4.82;3.28;;;;;;;28.79;37.21;99191.31;2202618;40;20665;-83
2021/07/12 10:15:57;;;;;;;3.85;1.95;;;;;;;28.40;38.02;99191.25;2201595;40;20410;-83
2021/07/12 10:17:29;;;;;;;3.05;1.20;;;;;;;28.08;38.93;99193.34;2207158;40;20046;-84
2021/07/12 10:19:00;;;;;;;4.65;1.23;;;;;;;28.15;38.92;99184.81;2207461;40;20065;-83
2021/07/12 10:20:34;;;;;;;2.40;0.90;;;;;;;28.31;38.18;99183.63;2207701;40;20038;-83
2021/07/12 10:22:06;;;;;;;4.40;1.63;;;;;;;28.52;38.08;99179.94;2201906;40;20027;-84
2021/07/12 10:23:37;;;;;;;2.70;1.05;;;;;;;28.55;37.62;99165.59;2199669;40;20035;-83
2021/07/12 10:25:12;;;;;;;3.13;1.10;;;;;;;28.55;37.78;99169.19;2203407;40;20080;-83
2021/07/12 10:27:02;;;;;;;2.92;1.35;;;;;;;28.47;38.15;99161.56;2203391;40;20071;-84
2021/07/12 10:28:43;;;;;;;2.45;1.10;;;;;;;28.45;37.82;99170.06;2203617;40;20045;-83
2021/07/12 10:30:24;;;;;;;3.40;1.30;;;;;;;28.32;37.84;99171.53;2202738;40;20038;-83
2021/07/12 10:32:13;;;;;;;3.58;1.20;;;;;;;28.06;39.20;99175.50;2202604;40;20093;-82
2021/07/12 10:33:44;;;;;;;2.78;1.25;;;;;;;28.26;38.68;99171.84;2200855;40;20097;-82
2021/07/12 10:35:35;;;;;;;4.57;1.17;;;;;;;28.37;38.81;99162.44;2201656;40;20071;-84
2021/07/12 10:37:15;;;;;;;3.63;1.10;;;;;;;28.11;39.09;99162.59;2200925;40;20038;-82
2021/07/12 10:38:48;;;;;;;2.50;1.15;;;;;;;27.92;39.74;99158.81;2200921;40;20526;-82
2021/07/12 10:40:20;;;;;;;2.75;1.17;;;;;;;28.05;39.60;99163.69;2200984;40;20046;-82
2021/07/12 10:41:51;;;;;;;2.20;0.90;;;;;;;28.18;39.00;99163.09;2201394;40;20035;-82
2021/07/12 10:43:49;;;;;;;3.88;1.00;;;;;;;28.21;38.75;99160.88;2201105;40;20035;-84
2021/07/12 10:45:41;;;;;;;3.60;1.00;;;;;;;28.25;39.12;99150.97;2200406;40;20039;-85
2021/07/12 10:47:40;;;;;;;2.80;1.00;;;;;;;28.28;38.34;99153.16;2200192;40;20130;-85
2021/07/12 10:49:40;;;;;;;3.13;1.13;;;;;;;28.45;38.43;99156.31;2199581;40;20038;-82
2021/07/12 10:51:17;;;;;;;4.55;1.20;;;;;;;28.78;37.79;99161.34;2200665;40;20050;-82
2021/07/12 10:52:50;;;;;;;2.65;1.08;;;;;;;28.94;37.36;99168.38;2193844;40;20096;-84
2021/07/12 10:54:22;;;;;;;3.05;1.08;;;;;;;29.16;36.32;99160.75;2200317;40;20494;-84
2021/07/12 10:56:03;;;;;;;2.92;1.10;;;;;;;29.28;35.36;99169.44;2201540;40;20031;-83
2021/07/12 10:57:35;;;;;;;3.47;1.10;;;;;;;29.17;34.76;99170.63;2201313;40;20216;-85
2021/07/12 10:59:09;;;;;;;3.17;1.42;;;;;;;28.97;35.02;99172.47;2237588;23;20027;-83
2021/07/12 11:00:39;;;;;;;3.90;1.30;;;;;;;28.85;34.89;99172.84;2213183;40;20034;-83
2021/07/12 11:02:32;;;;;;;3.40;1.08;;;;;;;28.72;34.86;99168.81;2208614;40;20049;-85
2021/07/12 11:04:51;;;;;;;3.40;1.20;;;;;;;28.68;35.43;99178.72;2213397;40;20084;-83
2021/07/12 11:06:26;;;;;;;2.58;0.98;;;;;;;28.54;35.87;99177.69;2213777;40;20039;-84
2021/07/12 11:07:58;;;;;;;2.75;1.00;;;;;;;28.54;36.00;99180.44;2207736;40;20038;-84
2021/07/12 11:10:03;;;;;;;4.35;1.30;;;;;;;28.55;35.58;99182.94;2204860;40;20038;-82
2021/07/12 11:11:40;;;;;;;3.45;1.40;;;;;;;28.51;35.25;99183.78;2200138;40;20357;-82
2021/07/12 11:13:12;;;;;;;2.88;1.25;;;;;;;28.46;35.89;99182.69;2201142;40;20046;-81
2021/07/12 11:15:08;;;;;;;3.22;1.27;;;;;;;28.45;36.05;99183.81;2199185;40;20046;-82
2021/07/12 11:16:42;;;;;;;2.75;1.38;;;;;;;28.47;36.29;99178.03;2197651;40;20434;-83
2021/07/12 11:18:27;;;;;;;3.28;1.25;;;;;;;28.57;36.38;99179.88;2197700;40;20125;-80
2021/07/12 11:19:58;;;;;;;4.75;2.58;;;;;;;28.62;36.10;99179.88;2199451;40;20039;-83
2021/07/12 11:21:30;;;;;;;2.90;1.33;;;;;;;28.58;36.32;99173.28;2201889;40;20035;-85
2021/07/12 11:23:01;;;;;;;2.85;1.30;;;;;;;28.57;36.62;99160.66;2202404;40;20088;-80
2021/07/12 11:24:35;;;;;;;3.05;1.30;;;;;;;28.72;36.76;99152.31;2202715;40;20128;-83
2021/07/12 11:26:52;;;;;;;2.75;1.20;;;;;;;28.75;36.42;99146.25;2203063;40;20038;-84
2021/07/12 11:28:22;;;;;;;4.40;1.65;;;;;;;28.70;36.48;99149.00;2202545;40;20039;-82
2021/07/12 11:30:26;;;;;;;2.55;1.10;;;;;;;28.24;37.77;99165.81;2200771;40;20055;-82
2021/07/12 11:32:09;;;;;;;3.35;1.27;;;;;;;28.12;37.67;99172.47;2201498;40;20043;-82
2021/07/12 11:33:42;;;;;;;2.53;1.05;;;;;;;28.12;37.72;99158.75;2211066;40;20049;-82
2021/07/12 11:35:14;;;;;;;2.92;1.35;;;;;;;28.23;38.01;99169.69;2213935;40;20045;-84
2021/07/12 11:36:58;;;;;;;3.10;1.20;;;;;;;28.39;37.57;99173.13;2214457;40;20053;-81
2021/07/12 11:38:31;;;;;;;4.93;1.60;;;;;;;28.47;37.42;99172.56;2209293;40;20049;-83
2021/07/12 11:40:04;;;;;;;4.55;1.38;;;;;;;28.52;37.53;99168.94;2210274;40;20041;-82
2021/07/12 11:41:35;;;;;;;4.25;1.20;;;;;;;28.46;37.56;99168.16;2209270;40;20034;-82
2021/07/12 11:43:07;;;;;;;3.90;1.20;;;;;;;28.43;37.69;99171.47;2211205;40;20045;-81
2021/07/12 11:44:37;;;;;;;3.00;1.10;;;;;;;28.39;37.67;99162.97;2208239;40;20402;-80
2021/07/12 11:46:14;;;;;;;2.30;0.90;;;;;;;28.47;37.46;99165.13;2207986;40;20061;-80
2021/07/12 11:47:48;;;;;;;4.85;1.20;;;;;;;28.49;37.25;99160.16;2208082;40;20040;-82